sensor_id;sensor_type;location;lat;lon;timestamp;temperature;humidity
78902;DHT22;70441;44.758;37.686;2024-02-28T00:00:22;4.60;49.65
78902;DHT22;70441;44.758;37.686;2024-02-28T00:01:24;4.58;49.66
78902;DHT22;70441;44.758;37.686;2024-02-28T00:02:26;4.60;49.59
78902;DHT22;70441;44.758;37.686;2024-02-28T00:03:29;4.58;49.60
78902;DHT22;70441;44.758;37.686;2024-02-28T00:04:33;4.60;49.60
78902;DHT22;70441;44.758;37.686;2024-02-28T00:05:35;4.60;49.65
78902;DHT22;70441;44.758;37.686;2024-02-28T00:06:36;4.58;49.74
78902;DHT22;70441;44.758;37.686;2024-02-28T00:07:38;4.57;49.69
78902;DHT22;70441;44.758;37.686;2024-02-28T00:08:39;4.60;49.67
78902;DHT22;70441;44.758;37.686;2024-02-28T00:09:41;4.58;49.76
78902;DHT22;70441;44.758;37.686;2024-02-28T00:10:43;4.57;49.64
78902;DHT22;70441;44.758;37.686;2024-02-28T00:11:45;4.57;49.64
78902;DHT22;70441;44.758;37.686;2024-02-28T00:12:49;4.55;49.61
78902;DHT22;70441;44.758;37.686;2024-02-28T00:13:51;4.57;49.63
78902;DHT22;70441;44.758;37.686;2024-02-28T00:14:54;4.55;49.70
78902;DHT22;70441;44.758;37.686;2024-02-28T00:15:55;4.58;49.61
78902;DHT22;70441;44.758;37.686;2024-02-28T00:17:00;4.57;49.59
78902;DHT22;70441;44.758;37.686;2024-02-28T00:18:01;4.58;49.51
78902;DHT22;70441;44.758;37.686;2024-02-28T00:19:05;4.58;49.44
78902;DHT22;70441;44.758;37.686;2024-02-28T00:20:07;4.60;49.39
78902;DHT22;70441;44.758;37.686;2024-02-28T00:21:10;4.61;49.40
78902;DHT22;70441;44.758;37.686;2024-02-28T00:22:11;4.64;49.25
78902;DHT22;70441;44.758;37.686;2024-02-28T00:23:13;4.62;49.24
78902;DHT22;70441;44.758;37.686;2024-02-28T00:24:15;4.65;49.21
78902;DHT22;70441;44.758;37.686;2024-02-28T00:25:16;4.64;49.16
78902;DHT22;70441;44.758;37.686;2024-02-28T00:26:18;4.67;49.18
78902;DHT22;70441;44.758;37.686;2024-02-28T00:27:20;4.61;49.27
78902;DHT22;70441;44.758;37.686;2024-02-28T00:28:22;4.62;49.30
78902;DHT22;70441;44.758;37.686;2024-02-28T00:29:24;4.60;49.42
78902;DHT22;70441;44.758;37.686;2024-02-28T00:30:26;4.57;49.44
78902;DHT22;70441;44.758;37.686;2024-02-28T00:31:29;4.57;49.38
78902;DHT22;70441;44.758;37.686;2024-02-28T00:32:31;4.57;49.48
78902;DHT22;70441;44.758;37.686;2024-02-28T00:33:32;4.57;49.31
78902;DHT22;70441;44.758;37.686;2024-02-28T00:34:34;4.60;49.34
78902;DHT22;70441;44.758;37.686;2024-02-28T00:35:36;4.57;49.41
78902;DHT22;70441;44.758;37.686;2024-02-28T00:36:37;4.54;49.45
78902;DHT22;70441;44.758;37.686;2024-02-28T00:37:39;4.51;49.55
78902;DHT22;70441;44.758;37.686;2024-02-28T00:38:41;4.48;49.67
78902;DHT22;70441;44.758;37.686;2024-02-28T00:39:45;4.51;49.55
78902;DHT22;70441;44.758;37.686;2024-02-28T00:40:47;4.50;49.50
78902;DHT22;70441;44.758;37.686;2024-02-28T00:41:49;4.53;49.50
78902;DHT22;70441;44.758;37.686;2024-02-28T00:42:50;4.51;49.43
78902;DHT22;70441;44.758;37.686;2024-02-28T00:43:52;4.51;49.44
78902;DHT22;70441;44.758;37.686;2024-02-28T00:44:54;4.50;49.56
78902;DHT22;70441;44.758;37.686;2024-02-28T00:45:55;4.48;49.62
78902;DHT22;70441;44.758;37.686;2024-02-28T00:46:59;4.47;49.47
78902;DHT22;70441;44.758;37.686;2024-02-28T00:48:01;4.48;49.48
78902;DHT22;70441;44.758;37.686;2024-02-28T00:49:02;4.51;49.32
78902;DHT22;70441;44.758;37.686;2024-02-28T00:50:04;4.48;49.28
78902;DHT22;70441;44.758;37.686;2024-02-28T00:51:06;4.50;49.16
78902;DHT22;70441;44.758;37.686;2024-02-28T00:52:10;4.54;49.04
78902;DHT22;70441;44.758;37.686;2024-02-28T00:53:12;4.57;48.87
78902;DHT22;70441;44.758;37.686;2024-02-28T00:54:17;4.60;48.94
78902;DHT22;70441;44.758;37.686;2024-02-28T00:55:18;4.62;48.65
78902;DHT22;70441;44.758;37.686;2024-02-28T00:56:20;4.64;48.57
78902;DHT22;70441;44.758;37.686;2024-02-28T00:57:22;4.68;48.42
78902;DHT22;70441;44.758;37.686;2024-02-28T00:58:23;4.68;48.49
78902;DHT22;70441;44.758;37.686;2024-02-28T00:59:27;4.69;48.39
78902;DHT22;70441;44.758;37.686;2024-02-28T01:00:29;4.69;48.31
78902;DHT22;70441;44.758;37.686;2024-02-28T01:01:31;4.72;48.26
78902;DHT22;70441;44.758;37.686;2024-02-28T01:02:32;4.76;48.12
78902;DHT22;70441;44.758;37.686;2024-02-28T01:03:34;4.76;47.99
78902;DHT22;70441;44.758;37.686;2024-02-28T01:04:35;4.82;47.92
78902;DHT22;70441;44.758;37.686;2024-02-28T01:05:37;4.82;47.90
78902;DHT22;70441;44.758;37.686;2024-02-28T01:06:39;4.80;47.76
78902;DHT22;70441;44.758;37.686;2024-02-28T01:07:41;4.88;47.47
78902;DHT22;70441;44.758;37.686;2024-02-28T01:08:42;4.93;47.42
78902;DHT22;70441;44.758;37.686;2024-02-28T01:09:44;4.96;47.33
78902;DHT22;70441;44.758;37.686;2024-02-28T01:10:46;5.00;47.08
78902;DHT22;70441;44.758;37.686;2024-02-28T01:11:48;5.03;46.84
78902;DHT22;70441;44.758;37.686;2024-02-28T01:12:49;5.10;46.89
78902;DHT22;70441;44.758;37.686;2024-02-28T01:13:51;5.09;46.83
78902;DHT22;70441;44.758;37.686;2024-02-28T01:14:53;5.06;46.79
78902;DHT22;70441;44.758;37.686;2024-02-28T01:15:55;5.10;46.58
78902;DHT22;70441;44.758;37.686;2024-02-28T01:16:57;5.17;46.31
78902;DHT22;70441;44.758;37.686;2024-02-28T01:17:59;5.20;46.28
78902;DHT22;70441;44.758;37.686;2024-02-28T01:19:01;5.21;46.28
78902;DHT22;70441;44.758;37.686;2024-02-28T01:20:03;5.21;46.31
78902;DHT22;70441;44.758;37.686;2024-02-28T01:21:05;5.26;46.35
78902;DHT22;70441;44.758;37.686;2024-02-28T01:22:06;5.21;46.30
78902;DHT22;70441;44.758;37.686;2024-02-28T01:23:10;5.23;46.29
78902;DHT22;70441;44.758;37.686;2024-02-28T01:24:11;5.24;46.26
78902;DHT22;70441;44.758;37.686;2024-02-28T01:25:13;5.27;46.06
78902;DHT22;70441;44.758;37.686;2024-02-28T01:26:15;5.28;45.97
78902;DHT22;70441;44.758;37.686;2024-02-28T01:27:16;5.34;45.86
78902;DHT22;70441;44.758;37.686;2024-02-28T01:28:18;5.30;46.03
78902;DHT22;70441;44.758;37.686;2024-02-28T01:29:19;5.30;46.10
78902;DHT22;70441;44.758;37.686;2024-02-28T01:30:21;5.28;46.16
78902;DHT22;70441;44.758;37.686;2024-02-28T01:31:22;5.26;46.16
78902;DHT22;70441;44.758;37.686;2024-02-28T01:32:24;5.27;45.99
78902;DHT22;70441;44.758;37.686;2024-02-28T01:33:26;5.35;45.78
78902;DHT22;70441;44.758;37.686;2024-02-28T01:34:27;5.39;45.61
78902;DHT22;70441;44.758;37.686;2024-02-28T01:35:32;5.44;45.55
78902;DHT22;70441;44.758;37.686;2024-02-28T01:36:34;5.42;45.64
78902;DHT22;70441;44.758;37.686;2024-02-28T01:37:35;5.45;45.50
78902;DHT22;70441;44.758;37.686;2024-02-28T01:38:37;5.44;45.65
78902;DHT22;70441;44.758;37.686;2024-02-28T01:39:42;5.41;45.73
78902;DHT22;70441;44.758;37.686;2024-02-28T01:40:46;5.37;45.69
78902;DHT22;70441;44.758;37.686;2024-02-28T01:41:54;5.39;45.64
78902;DHT22;70441;44.758;37.686;2024-02-28T01:43:11;5.41;45.58
78902;DHT22;70441;44.758;37.686;2024-02-28T01:44:13;5.39;45.64
78902;DHT22;70441;44.758;37.686;2024-02-28T01:45:14;5.39;45.61
78902;DHT22;70441;44.758;37.686;2024-02-28T01:46:28;5.39;45.55
78902;DHT22;70441;44.758;37.686;2024-02-28T01:47:30;5.39;45.60
78902;DHT22;70441;44.758;37.686;2024-02-28T01:48:32;5.38;45.55
78902;DHT22;70441;44.758;37.686;2024-02-28T01:49:34;5.41;45.54
78902;DHT22;70441;44.758;37.686;2024-02-28T01:50:35;5.42;45.59
78902;DHT22;70441;44.758;37.686;2024-02-28T01:51:38;5.39;45.53
78902;DHT22;70441;44.758;37.686;2024-02-28T01:52:40;5.39;45.55
78902;DHT22;70441;44.758;37.686;2024-02-28T01:53:43;5.38;45.53
78902;DHT22;70441;44.758;37.686;2024-02-28T01:54:45;5.37;45.57
78902;DHT22;70441;44.758;37.686;2024-02-28T01:55:47;5.39;45.55
78902;DHT22;70441;44.758;37.686;2024-02-28T01:56:49;5.39;45.40
78902;DHT22;70441;44.758;37.686;2024-02-28T01:57:52;5.42;45.47
78902;DHT22;70441;44.758;37.686;2024-02-28T01:58:55;5.41;45.39
78902;DHT22;70441;44.758;37.686;2024-02-28T01:59:58;5.45;45.28
78902;DHT22;70441;44.758;37.686;2024-02-28T02:01:01;5.47;45.28
78902;DHT22;70441;44.758;37.686;2024-02-28T02:02:05;5.47;45.20
78902;DHT22;70441;44.758;37.686;2024-02-28T02:03:08;5.47;45.26
78902;DHT22;70441;44.758;37.686;2024-02-28T02:04:09;5.48;45.13
78902;DHT22;70441;44.758;37.686;2024-02-28T02:05:11;5.49;45.02
78902;DHT22;70441;44.758;37.686;2024-02-28T02:06:13;5.52;45.04
78902;DHT22;70441;44.758;37.686;2024-02-28T02:07:14;5.56;44.83
78902;DHT22;70441;44.758;37.686;2024-02-28T02:08:16;5.60;44.62
78902;DHT22;70441;44.758;37.686;2024-02-28T02:09:17;5.63;44.58
78902;DHT22;70441;44.758;37.686;2024-02-28T02:10:19;5.67;44.34
78902;DHT22;70441;44.758;37.686;2024-02-28T02:11:21;5.72;44.14
78902;DHT22;70441;44.758;37.686;2024-02-28T02:12:23;5.74;44.19
78902;DHT22;70441;44.758;37.686;2024-02-28T02:13:24;5.76;44.10
78902;DHT22;70441;44.758;37.686;2024-02-28T02:14:26;5.81;43.95
78902;DHT22;70441;44.758;37.686;2024-02-28T02:15:27;5.86;43.85
78902;DHT22;70441;44.758;37.686;2024-02-28T02:16:31;5.86;43.77
78902;DHT22;70441;44.758;37.686;2024-02-28T02:17:33;5.90;43.76
78902;DHT22;70441;44.758;37.686;2024-02-28T02:18:34;5.87;43.70
78902;DHT22;70441;44.758;37.686;2024-02-28T02:19:36;5.85;43.80
78902;DHT22;70441;44.758;37.686;2024-02-28T02:20:42;5.83;43.87
78902;DHT22;70441;44.758;37.686;2024-02-28T02:21:50;5.77;44.03
78902;DHT22;70441;44.758;37.686;2024-02-28T02:22:53;5.76;44.13
78902;DHT22;70441;44.758;37.686;2024-02-28T02:23:55;5.69;44.30
78902;DHT22;70441;44.758;37.686;2024-02-28T02:24:56;5.66;44.35
78902;DHT22;70441;44.758;37.686;2024-02-28T02:25:58;5.60;44.44
78902;DHT22;70441;44.758;37.686;2024-02-28T02:27:00;5.59;44.36
78902;DHT22;70441;44.758;37.686;2024-02-28T02:28:02;5.62;44.38
78902;DHT22;70441;44.758;37.686;2024-02-28T02:29:04;5.54;44.54
78902;DHT22;70441;44.758;37.686;2024-02-28T02:30:06;5.48;44.64
78902;DHT22;70441;44.758;37.686;2024-02-28T02:31:10;5.45;44.66
78902;DHT22;70441;44.758;37.686;2024-02-28T02:32:12;5.42;44.69
78902;DHT22;70441;44.758;37.686;2024-02-28T02:33:13;5.42;44.67
78902;DHT22;70441;44.758;37.686;2024-02-28T02:34:15;5.39;44.63
78902;DHT22;70441;44.758;37.686;2024-02-28T02:35:17;5.38;44.59
78902;DHT22;70441;44.758;37.686;2024-02-28T02:36:18;5.35;44.56
78902;DHT22;70441;44.758;37.686;2024-02-28T02:37:20;5.34;44.71
78902;DHT22;70441;44.758;37.686;2024-02-28T02:38:22;5.32;44.79
78902;DHT22;70441;44.758;37.686;2024-02-28T02:39:23;5.31;44.75
78902;DHT22;70441;44.758;37.686;2024-02-28T02:40:25;5.28;44.79
78902;DHT22;70441;44.758;37.686;2024-02-28T02:41:27;5.28;44.85
78902;DHT22;70441;44.758;37.686;2024-02-28T02:42:29;5.24;44.94
78902;DHT22;70441;44.758;37.686;2024-02-28T02:43:30;5.24;44.84
78902;DHT22;70441;44.758;37.686;2024-02-28T02:44:33;5.21;44.84
78902;DHT22;70441;44.758;37.686;2024-02-28T02:45:34;5.20;44.76
78902;DHT22;70441;44.758;37.686;2024-02-28T02:46:36;5.19;44.94
78902;DHT22;70441;44.758;37.686;2024-02-28T02:47:38;5.19;44.92
78902;DHT22;70441;44.758;37.686;2024-02-28T02:48:39;5.17;44.87
78902;DHT22;70441;44.758;37.686;2024-02-28T02:49:41;5.13;44.97
78902;DHT22;70441;44.758;37.686;2024-02-28T02:50:42;5.10;45.02
78902;DHT22;70441;44.758;37.686;2024-02-28T02:51:44;5.09;45.20
78902;DHT22;70441;44.758;37.686;2024-02-28T02:52:46;5.01;45.18
78902;DHT22;70441;44.758;37.686;2024-02-28T02:53:50;5.01;45.35
78902;DHT22;70441;44.758;37.686;2024-02-28T02:54:51;4.99;45.44
78902;DHT22;70441;44.758;37.686;2024-02-28T02:55:55;5.04;45.39
78902;DHT22;70441;44.758;37.686;2024-02-28T02:56:57;5.13;45.30
78902;DHT22;70441;44.758;37.686;2024-02-28T02:57:58;5.17;45.21
78902;DHT22;70441;44.758;37.686;2024-02-28T02:59:00;5.14;45.11
78902;DHT22;70441;44.758;37.686;2024-02-28T03:00:02;5.16;45.09
78902;DHT22;70441;44.758;37.686;2024-02-28T03:01:04;5.17;45.01
78902;DHT22;70441;44.758;37.686;2024-02-28T03:02:06;5.28;44.75
78902;DHT22;70441;44.758;37.686;2024-02-28T03:03:07;5.39;44.36
78902;DHT22;70441;44.758;37.686;2024-02-28T03:04:09;5.45;44.18
78902;DHT22;70441;44.758;37.686;2024-02-28T03:05:11;5.45;44.00
78902;DHT22;70441;44.758;37.686;2024-02-28T03:06:15;5.51;43.92
78902;DHT22;70441;44.758;37.686;2024-02-28T03:07:17;5.49;44.21
78902;DHT22;70441;44.758;37.686;2024-02-28T03:08:19;5.42;44.38
78902;DHT22;70441;44.758;37.686;2024-02-28T03:09:20;5.42;44.19
78902;DHT22;70441;44.758;37.686;2024-02-28T03:10:22;5.44;44.27
78902;DHT22;70441;44.758;37.686;2024-02-28T03:11:24;5.45;44.36
78902;DHT22;70441;44.758;37.686;2024-02-28T03:12:26;5.42;44.30
78902;DHT22;70441;44.758;37.686;2024-02-28T03:13:27;5.44;44.26
78902;DHT22;70441;44.758;37.686;2024-02-28T03:14:29;5.45;44.23
78902;DHT22;70441;44.758;37.686;2024-02-28T03:15:31;5.42;44.18
78902;DHT22;70441;44.758;37.686;2024-02-28T03:16:33;5.42;44.19
78902;DHT22;70441;44.758;37.686;2024-02-28T03:17:38;5.42;44.21
78902;DHT22;70441;44.758;37.686;2024-02-28T03:18:43;5.41;44.15
78902;DHT22;70441;44.758;37.686;2024-02-28T03:19:45;5.45;44.04
78902;DHT22;70441;44.758;37.686;2024-02-28T03:20:46;5.45;44.05
78902;DHT22;70441;44.758;37.686;2024-02-28T03:21:48;5.45;43.98
78902;DHT22;70441;44.758;37.686;2024-02-28T03:22:50;5.45;43.94
78902;DHT22;70441;44.758;37.686;2024-02-28T03:23:51;5.51;43.95
78902;DHT22;70441;44.758;37.686;2024-02-28T03:24:53;5.49;43.96
78902;DHT22;70441;44.758;37.686;2024-02-28T03:25:55;5.48;44.21
78902;DHT22;70441;44.758;37.686;2024-02-28T03:26:56;5.45;44.10
78902;DHT22;70441;44.758;37.686;2024-02-28T03:27:58;5.41;44.29
78902;DHT22;70441;44.758;37.686;2024-02-28T03:29:00;5.41;44.34
78902;DHT22;70441;44.758;37.686;2024-02-28T03:30:02;5.38;44.25
78902;DHT22;70441;44.758;37.686;2024-02-28T03:31:04;5.38;44.34
78902;DHT22;70441;44.758;37.686;2024-02-28T03:32:06;5.38;44.16
78902;DHT22;70441;44.758;37.686;2024-02-28T03:33:08;5.41;44.16
78902;DHT22;70441;44.758;37.686;2024-02-28T03:34:15;5.39;43.99
78902;DHT22;70441;44.758;37.686;2024-02-28T03:35:17;5.44;44.00
78902;DHT22;70441;44.758;37.686;2024-02-28T03:36:19;5.47;43.96
78902;DHT22;70441;44.758;37.686;2024-02-28T03:37:20;5.45;43.99
78902;DHT22;70441;44.758;37.686;2024-02-28T03:38:22;5.42;43.95
78902;DHT22;70441;44.758;37.686;2024-02-28T03:39:23;5.44;43.91
78902;DHT22;70441;44.758;37.686;2024-02-28T03:40:25;5.47;43.87
78902;DHT22;70441;44.758;37.686;2024-02-28T03:41:26;5.49;43.77
78902;DHT22;70441;44.758;37.686;2024-02-28T03:42:28;5.49;43.61
78902;DHT22;70441;44.758;37.686;2024-02-28T03:43:29;5.54;43.43
78902;DHT22;70441;44.758;37.686;2024-02-28T03:44:31;5.63;43.15
78902;DHT22;70441;44.758;37.686;2024-02-28T03:45:37;5.66;43.01
78902;DHT22;70441;44.758;37.686;2024-02-28T03:46:39;5.76;42.86
78902;DHT22;70441;44.758;37.686;2024-02-28T03:47:41;5.76;42.72
78902;DHT22;70441;44.758;37.686;2024-02-28T03:48:42;5.80;42.65
78902;DHT22;70441;44.758;37.686;2024-02-28T03:49:43;5.81;42.54
78902;DHT22;70441;44.758;37.686;2024-02-28T03:50:45;5.85;42.44
78902;DHT22;70441;44.758;37.686;2024-02-28T03:51:47;5.83;42.42
78902;DHT22;70441;44.758;37.686;2024-02-28T03:52:50;5.85;42.41
78902;DHT22;70441;44.758;37.686;2024-02-28T03:53:51;5.86;42.29
78902;DHT22;70441;44.758;37.686;2024-02-28T03:54:52;5.86;42.23
78902;DHT22;70441;44.758;37.686;2024-02-28T03:55:54;5.90;42.07
78902;DHT22;70441;44.758;37.686;2024-02-28T03:56:55;5.91;41.87
78902;DHT22;70441;44.758;37.686;2024-02-28T03:57:57;6.00;41.64
78902;DHT22;70441;44.758;37.686;2024-02-28T03:58:59;6.11;41.36
78902;DHT22;70441;44.758;37.686;2024-02-28T04:00:01;6.14;41.13
78902;DHT22;70441;44.758;37.686;2024-02-28T04:01:13;6.20;40.93
78902;DHT22;70441;44.758;37.686;2024-02-28T04:02:14;6.26;40.89
78902;DHT22;70441;44.758;37.686;2024-02-28T04:03:16;6.24;41.06
78902;DHT22;70441;44.758;37.686;2024-02-28T04:04:18;6.18;41.51
78902;DHT22;70441;44.758;37.686;2024-02-28T04:05:19;6.07;42.01
78902;DHT22;70441;44.758;37.686;2024-02-28T04:06:20;5.97;42.25
78902;DHT22;70441;44.758;37.686;2024-02-28T04:07:22;5.89;42.49
78902;DHT22;70441;44.758;37.686;2024-02-28T04:08:24;5.80;42.68
78902;DHT22;70441;44.758;37.686;2024-02-28T04:09:25;5.76;42.75
78902;DHT22;70441;44.758;37.686;2024-02-28T04:10:27;5.74;42.94
78902;DHT22;70441;44.758;37.686;2024-02-28T04:11:28;5.72;42.93
78902;DHT22;70441;44.758;37.686;2024-02-28T04:12:30;5.67;43.33
78902;DHT22;70441;44.758;37.686;2024-02-28T04:13:31;5.58;43.69
78902;DHT22;70441;44.758;37.686;2024-02-28T04:14:33;5.49;44.06
78902;DHT22;70441;44.758;37.686;2024-02-28T04:15:35;5.38;44.53
78902;DHT22;70441;44.758;37.686;2024-02-28T04:16:46;5.23;44.96
78902;DHT22;70441;44.758;37.686;2024-02-28T04:17:48;5.17;45.20
78902;DHT22;70441;44.758;37.686;2024-02-28T04:18:53;5.10;45.20
78902;DHT22;70441;44.758;37.686;2024-02-28T04:19:55;5.06;45.38
78902;DHT22;70441;44.758;37.686;2024-02-28T04:20:58;5.01;45.59
78902;DHT22;70441;44.758;37.686;2024-02-28T04:22:00;4.96;45.80
78902;DHT22;70441;44.758;37.686;2024-02-28T04:23:02;4.92;45.89
78902;DHT22;70441;44.758;37.686;2024-02-28T04:24:05;4.88;46.12
78902;DHT22;70441;44.758;37.686;2024-02-28T04:25:08;4.85;46.15
78902;DHT22;70441;44.758;37.686;2024-02-28T04:26:12;4.82;46.32
78902;DHT22;70441;44.758;37.686;2024-02-28T04:27:14;4.79;46.40
78902;DHT22;70441;44.758;37.686;2024-02-28T04:28:16;4.78;46.46
78902;DHT22;70441;44.758;37.686;2024-02-28T04:29:18;4.75;46.63
78902;DHT22;70441;44.758;37.686;2024-02-28T04:30:20;4.71;46.70
78902;DHT22;70441;44.758;37.686;2024-02-28T04:31:22;4.67;46.83
78902;DHT22;70441;44.758;37.686;2024-02-28T04:32:24;4.69;46.85
78902;DHT22;70441;44.758;37.686;2024-02-28T04:33:25;4.65;46.98
78902;DHT22;70441;44.758;37.686;2024-02-28T04:34:27;4.65;47.06
78902;DHT22;70441;44.758;37.686;2024-02-28T04:35:29;4.67;46.95
78902;DHT22;70441;44.758;37.686;2024-02-28T04:36:31;4.68;46.99
78902;DHT22;70441;44.758;37.686;2024-02-28T04:37:32;4.64;47.08
78902;DHT22;70441;44.758;37.686;2024-02-28T04:38:36;4.65;46.94
78902;DHT22;70441;44.758;37.686;2024-02-28T04:39:37;4.67;46.84
78902;DHT22;70441;44.758;37.686;2024-02-28T04:40:39;4.75;46.70
78902;DHT22;70441;44.758;37.686;2024-02-28T04:41:40;4.75;46.51
78902;DHT22;70441;44.758;37.686;2024-02-28T04:42:42;4.78;46.53
78902;DHT22;70441;44.758;37.686;2024-02-28T04:43:44;4.79;46.62
78902;DHT22;70441;44.758;37.686;2024-02-28T04:44:46;4.78;46.84
78902;DHT22;70441;44.758;37.686;2024-02-28T04:45:48;4.76;46.92
78902;DHT22;70441;44.758;37.686;2024-02-28T04:46:49;4.82;46.86
78902;DHT22;70441;44.758;37.686;2024-02-28T04:47:51;4.85;46.89
78902;DHT22;70441;44.758;37.686;2024-02-28T04:48:56;4.88;46.75
78902;DHT22;70441;44.758;37.686;2024-02-28T04:49:58;4.92;46.58
78902;DHT22;70441;44.758;37.686;2024-02-28T04:51:02;5.00;46.63
78902;DHT22;70441;44.758;37.686;2024-02-28T04:52:04;5.07;46.34
78902;DHT22;70441;44.758;37.686;2024-02-28T04:53:06;5.10;46.14
78902;DHT22;70441;44.758;37.686;2024-02-28T04:54:07;5.19;46.00
78902;DHT22;70441;44.758;37.686;2024-02-28T04:55:09;5.24;45.91
78902;DHT22;70441;44.758;37.686;2024-02-28T04:56:11;5.31;45.66
78902;DHT22;70441;44.758;37.686;2024-02-28T04:57:13;5.37;45.39
78902;DHT22;70441;44.758;37.686;2024-02-28T04:58:14;5.47;45.28
78902;DHT22;70441;44.758;37.686;2024-02-28T04:59:16;5.58;45.14
78902;DHT22;70441;44.758;37.686;2024-02-28T05:00:18;5.69;45.18
78902;DHT22;70441;44.758;37.686;2024-02-28T05:01:19;5.77;44.67
78902;DHT22;70441;44.758;37.686;2024-02-28T05:02:21;5.87;44.95
78902;DHT22;70441;44.758;37.686;2024-02-28T05:03:23;5.94;44.43
78902;DHT22;70441;44.758;37.686;2024-02-28T05:04:26;6.05;44.16
78902;DHT22;70441;44.758;37.686;2024-02-28T05:05:28;6.13;44.15
78902;DHT22;70441;44.758;37.686;2024-02-28T05:06:29;6.22;43.99
78902;DHT22;70441;44.758;37.686;2024-02-28T05:07:31;6.31;43.73
78902;DHT22;70441;44.758;37.686;2024-02-28T05:08:33;6.40;43.57
78902;DHT22;70441;44.758;37.686;2024-02-28T05:09:35;6.52;43.22
78902;DHT22;70441;44.758;37.686;2024-02-28T05:10:36;6.60;43.19
78902;DHT22;70441;44.758;37.686;2024-02-28T05:11:38;6.69;43.05
78902;DHT22;70441;44.758;37.686;2024-02-28T05:12:40;6.73;43.32
78902;DHT22;70441;44.758;37.686;2024-02-28T05:13:42;6.80;43.11
78902;DHT22;70441;44.758;37.686;2024-02-28T05:14:44;6.87;42.89
78902;DHT22;70441;44.758;37.686;2024-02-28T05:15:46;6.92;42.88
78902;DHT22;70441;44.758;37.686;2024-02-28T05:16:48;6.99;42.83
78902;DHT22;70441;44.758;37.686;2024-02-28T05:17:52;7.08;42.52
78902;DHT22;70441;44.758;37.686;2024-02-28T05:18:54;7.14;42.47
78902;DHT22;70441;44.758;37.686;2024-02-28T05:19:55;7.25;42.21
78902;DHT22;70441;44.758;37.686;2024-02-28T05:21:00;7.29;41.92
78902;DHT22;70441;44.758;37.686;2024-02-28T05:22:02;7.42;41.82
78902;DHT22;70441;44.758;37.686;2024-02-28T05:23:04;7.51;41.96
78902;DHT22;70441;44.758;37.686;2024-02-28T05:24:06;7.58;41.98
78902;DHT22;70441;44.758;37.686;2024-02-28T05:25:07;7.64;41.84
78902;DHT22;70441;44.758;37.686;2024-02-28T05:26:09;7.71;41.52
78902;DHT22;70441;44.758;37.686;2024-02-28T05:27:11;7.79;41.30
78902;DHT22;70441;44.758;37.686;2024-02-28T05:28:12;7.91;41.54
78902;DHT22;70441;44.758;37.686;2024-02-28T05:29:14;7.95;41.14
78902;DHT22;70441;44.758;37.686;2024-02-28T05:30:16;7.98;41.22
78902;DHT22;70441;44.758;37.686;2024-02-28T05:31:25;8.03;41.26
78902;DHT22;70441;44.758;37.686;2024-02-28T05:32:27;8.06;41.03
78902;DHT22;70441;44.758;37.686;2024-02-28T05:33:29;8.12;40.89
78902;DHT22;70441;44.758;37.686;2024-02-28T05:34:31;8.25;41.15
78902;DHT22;70441;44.758;37.686;2024-02-28T05:35:40;8.30;40.33
78902;DHT22;70441;44.758;37.686;2024-02-28T05:36:42;8.41;40.49
78902;DHT22;70441;44.758;37.686;2024-02-28T05:37:44;8.48;40.49
78902;DHT22;70441;44.758;37.686;2024-02-28T05:38:48;8.60;40.28
78902;DHT22;70441;44.758;37.686;2024-02-28T05:39:49;8.65;40.24
78902;DHT22;70441;44.758;37.686;2024-02-28T05:40:51;8.76;40.46
78902;DHT22;70441;44.758;37.686;2024-02-28T05:41:54;8.85;40.20
78902;DHT22;70441;44.758;37.686;2024-02-28T05:42:56;8.97;39.63
78902;DHT22;70441;44.758;37.686;2024-02-28T05:43:58;9.06;39.91
78902;DHT22;70441;44.758;37.686;2024-02-28T05:44:59;9.13;39.76
78902;DHT22;70441;44.758;37.686;2024-02-28T05:46:01;9.23;39.46
78902;DHT22;70441;44.758;37.686;2024-02-28T05:47:03;9.30;39.65
78902;DHT22;70441;44.758;37.686;2024-02-28T05:48:05;9.39;39.41
78902;DHT22;70441;44.758;37.686;2024-02-28T05:49:06;9.49;39.00
78902;DHT22;70441;44.758;37.686;2024-02-28T05:50:09;9.58;38.93
78902;DHT22;70441;44.758;37.686;2024-02-28T05:51:12;9.68;38.98
78902;DHT22;70441;44.758;37.686;2024-02-28T05:52:14;9.72;39.18
78902;DHT22;70441;44.758;37.686;2024-02-28T05:53:16;9.80;38.37
78902;DHT22;70441;44.758;37.686;2024-02-28T05:54:18;9.86;38.02
78902;DHT22;70441;44.758;37.686;2024-02-28T05:55:20;9.91;37.91
78902;DHT22;70441;44.758;37.686;2024-02-28T05:56:23;9.98;37.93
78902;DHT22;70441;44.758;37.686;2024-02-28T05:57:25;10.04;38.11
78902;DHT22;70441;44.758;37.686;2024-02-28T05:58:27;10.08;38.46
78902;DHT22;70441;44.758;37.686;2024-02-28T05:59:28;10.17;38.24
78902;DHT22;70441;44.758;37.686;2024-02-28T06:00:30;10.28;38.11
78902;DHT22;70441;44.758;37.686;2024-02-28T06:01:32;10.39;37.57
78902;DHT22;70441;44.758;37.686;2024-02-28T06:02:34;10.50;37.44
78902;DHT22;70441;44.758;37.686;2024-02-28T06:03:38;10.56;37.14
78902;DHT22;70441;44.758;37.686;2024-02-28T06:04:40;10.69;37.33
78902;DHT22;70441;44.758;37.686;2024-02-28T06:05:42;10.74;36.55
78902;DHT22;70441;44.758;37.686;2024-02-28T06:06:43;10.77;36.39
78902;DHT22;70441;44.758;37.686;2024-02-28T06:07:45;10.87;36.38
78902;DHT22;70441;44.758;37.686;2024-02-28T06:08:47;10.91;36.40
78902;DHT22;70441;44.758;37.686;2024-02-28T06:09:49;10.94;36.16
78902;DHT22;70441;44.758;37.686;2024-02-28T06:10:50;10.94;36.89
78902;DHT22;70441;44.758;37.686;2024-02-28T06:11:56;11.00;36.48
78902;DHT22;70441;44.758;37.686;2024-02-28T06:12:58;11.10;35.85
78902;DHT22;70441;44.758;37.686;2024-02-28T06:14:00;11.14;35.79
78902;DHT22;70441;44.758;37.686;2024-02-28T06:15:01;11.14;35.34
78902;DHT22;70441;44.758;37.686;2024-02-28T06:16:03;11.21;35.77
78902;DHT22;70441;44.758;37.686;2024-02-28T06:17:05;11.36;35.59
78902;DHT22;70441;44.758;37.686;2024-02-28T06:18:07;11.49;34.85
78902;DHT22;70441;44.758;37.686;2024-02-28T06:19:08;11.42;34.75
78902;DHT22;70441;44.758;37.686;2024-02-28T06:20:10;11.46;35.29
78902;DHT22;70441;44.758;37.686;2024-02-28T06:21:13;11.67;35.60
78902;DHT22;70441;44.758;37.686;2024-02-28T06:22:15;11.95;35.39
78902;DHT22;70441;44.758;37.686;2024-02-28T06:23:17;12.16;35.23
78902;DHT22;70441;44.758;37.686;2024-02-28T06:24:20;12.23;34.59
78902;DHT22;70441;44.758;37.686;2024-02-28T06:25:22;12.19;34.75
78902;DHT22;70441;44.758;37.686;2024-02-28T06:26:25;12.13;34.43
78902;DHT22;70441;44.758;37.686;2024-02-28T06:27:26;12.25;34.87
78902;DHT22;70441;44.758;37.686;2024-02-28T06:28:28;12.30;34.61
78902;DHT22;70441;44.758;37.686;2024-02-28T06:29:30;12.48;35.14
78902;DHT22;70441;44.758;37.686;2024-02-28T06:30:31;12.53;34.74
78902;DHT22;70441;44.758;37.686;2024-02-28T06:31:33;12.69;34.70
78902;DHT22;70441;44.758;37.686;2024-02-28T06:32:34;12.78;34.28